Terminal Aerodrome Forecast
Issued by NWS Twin Cities, MN

Home | Current Version | Previous Version | Graphics & Text | Print | Product List | Glossary On
Versions: 1 2 3 4 5 6 7 8 9 10 11 12
000
FTUS43 KMPX 240500
TAFEAU
TAF
KEAU 240520Z 2406/2506 35006KT P6SM OVC015
     FM241400 34006KT 6SM BR OVC009
     FM242000 32008KT P6SM OVC015=

USA.gov is the U.S. government's official web portal to all federal, state and local government web resources and services.